Time;durP1;ratioP1;P1;durP2;ratioP2;P2;SDS_P1;SDS_P2;PMS_P1;PMS_P2;Temp;Humidity;BMP_temperature;BMP_pressure;BME280_temperature;BME280_humidity;BME280_pressure;Samples;Min_cycle;Max_cycle;Signal;HPM_P1;HPM_P2
2021/06/13 00:00:15;;;;;;;;;;;;;;;22.79;48.10;102430.53;5109865;28;1731;-62
2021/06/13 00:02:42;;;;;;;;;;;;;;;22.77;47.57;102432.53;5105975;28;1361;-61
2021/06/13 00:05:07;;;;;;;;;;;;;;;22.75;47.85;102429.91;5106136;28;1344;-62
2021/06/13 00:07:32;;;;;;;;;;;;;;;22.75;47.44;102442.66;5104906;28;1538;-61
2021/06/13 00:09:57;;;;;;;;;;;;;;;22.72;47.75;102441.09;5103709;28;1550;-62
2021/06/13 00:12:22;;;;;;;;;;;;;;;22.72;48.02;102437.50;5093697;28;1319;-61
2021/06/13 00:14:47;;;;;;;;;;;;;;;22.72;48.09;102445.66;5088152;28;1844;-61
2021/06/13 00:17:16;;;;;;;;;;;;;;;22.71;48.58;102441.22;5105064;28;1329;-61
2021/06/13 00:19:41;;;;;;;;;;;;;;;22.68;47.49;102445.06;5114213;28;1894;-62
2021/06/13 00:22:06;;;;;;;;;;;;;;;22.68;47.52;102445.06;5100396;28;1849;-61
2021/06/13 00:24:32;;;;;;;;;;;;;;;22.67;47.58;102445.22;5110291;28;1424;-61
2021/06/13 00:26:57;;;;;;;;;;;;;;;22.64;47.25;102437.31;5103403;28;1458;-62
2021/06/13 00:29:22;;;;;;;;;;;;;;;22.64;48.02;102437.31;5111328;28;1266;-61
2021/06/13 00:31:49;;;;;;;;;;;;;;;22.61;47.55;102437.59;5100568;28;1347;-61
2021/06/13 00:34:14;;;;;;;;;;;;;;;22.58;47.54;102435.16;5112862;28;1291;-61
2021/06/13 00:36:39;;;;;;;;;;;;;;;22.57;48.08;102438.91;5104257;28;1435;-62
2021/06/13 00:39:04;;;;;;;;;;;;;;;22.56;48.43;102437.19;5108645;28;1959;-61
2021/06/13 00:41:29;;;;;;;;;;;;;;;22.55;47.07;102435.47;5101773;28;1509;-61
2021/06/13 00:43:54;;;;;;;;;;;;;;;22.52;47.46;102434.75;5113415;28;1274;-62
2021/06/13 00:46:19;;;;;;;;;;;;;;;22.52;47.90;102434.75;5102092;28;1353;-62
2021/06/13 00:48:44;;;;;;;;;;;;;;;22.51;48.46;102427.59;5105474;28;1860;-61
2021/06/13 00:51:10;;;;;;;;;;;;;;;22.49;47.89;102429.56;5107249;28;1315;-61
2021/06/13 00:53:35;;;;;;;;;;;;;;;22.47;47.27;102415.25;5099648;28;1487;-61
2021/06/13 00:56:00;;;;;;;;;;;;;;;22.46;48.19;102427.13;5109410;28;1524;-61
2021/06/13 00:58:25;;;;;;;;;;;;;;;22.43;48.38;102426.53;5101997;28;1910;-61
2021/06/13 01:00:50;;;;;;;;;;;;;;;22.43;47.50;102431.97;5107305;28;1271;-61
2021/06/13 01:03:15;;;;;;;;;;;;;;;22.41;48.74;102429.41;5097114;28;1867;-61
2021/06/13 01:05:40;;;;;;;;;;;;;;;22.39;48.02;102433.28;5113197;28;1380;-61
2021/06/13 01:08:05;;;;;;;;;;;;;;;22.40;47.79;102434.97;5099712;28;1874;-61
2021/06/13 01:10:30;;;;;;;;;;;;;;;22.38;47.74;102434.28;5109521;28;1154;-61
2021/06/13 01:12:55;;;;;;;;;;;;;;;22.36;48.11;102444.41;5106495;28;1739;-61
2021/06/13 01:15:21;;;;;;;;;;;;;;;22.36;46.57;102433.53;5115723;28;1968;-61
2021/06/13 01:17:46;;;;;;;;;;;;;;;22.33;47.63;102434.66;5099759;28;1890;-61
2021/06/13 01:20:11;;;;;;;;;;;;;;;22.31;47.69;102430.38;5112352;28;1240;-61
2021/06/13 01:22:37;;;;;;;;;;;;;;;22.30;46.18;102429.50;5103341;28;1811;-61
2021/06/13 01:25:02;;;;;;;;;;;;;;;22.31;46.07;102436.66;5104781;28;1450;-62
2021/06/13 01:27:27;;;;;;;;;;;;;;;22.31;47.26;102431.22;5102827;28;1520;-61
2021/06/13 01:29:52;;;;;;;;;;;;;;;22.29;46.85;102433.22;5112871;28;1146;-61
2021/06/13 01:32:18;;;;;;;;;;;;;;;22.28;47.45;102438.78;5100799;28;1835;-62
2021/06/13 01:34:43;;;;;;;;;;;;;;;22.25;47.15;102437.19;5107602;28;1331;-61
2021/06/13 01:37:08;;;;;;;;;;;;;;;22.22;47.61;102445.63;5103131;28;1504;-61
2021/06/13 01:39:33;;;;;;;;;;;;;;;22.22;47.47;102444.75;5111375;28;1955;-62
2021/06/13 01:41:58;;;;;;;;;;;;;;;22.20;48.14;102438.63;5098989;28;1518;-61
2021/06/13 01:44:23;;;;;;;;;;;;;;;22.19;47.70;102437.75;5109996;28;1370;-61
2021/06/13 01:46:48;;;;;;;;;;;;;;;22.20;48.52;102439.50;5102794;28;1528;-61
2021/06/13 01:49:13;;;;;;;;;;;;;;;22.17;47.88;102437.03;5105951;28;1874;-61
2021/06/13 01:51:38;;;;;;;;;;;;;;;22.17;47.89;102437.03;5105774;28;1537;-61
2021/06/13 01:54:04;;;;;;;;;;;;;;;22.14;48.06;102432.72;5112225;28;1411;-62
2021/06/13 01:56:29;;;;;;;;;;;;;;;22.12;48.08;102426.56;5101690;28;1761;-61
2021/06/13 01:58:54;;;;;;;;;;;;;;;22.10;48.18;102420.41;5105779;28;1960;-62
2021/06/13 02:01:19;;;;;;;;;;;;;;;22.12;48.23;102421.16;5102161;28;1225;-61
2021/06/13 02:03:44;;;;;;;;;;;;;;;22.11;48.29;102426.72;5111864;28;1868;-61
2021/06/13 02:06:09;;;;;;;;;;;;;;;22.12;48.60;102425.72;5099146;28;1389;-61
2021/06/13 02:08:34;;;;;;;;;;;;;;;22.10;48.98;102436.72;5107719;28;1342;-61
2021/06/13 02:10:59;;;;;;;;;;;;;;;22.08;48.88;102430.56;5097777;28;1513;-61
2021/06/13 02:13:25;;;;;;;;;;;;;;;22.10;48.35;102433.13;5109457;28;1747;-61
2021/06/13 02:15:50;;;;;;;;;;;;;;;22.07;48.22;102427.97;5098660;28;1774;-61
2021/06/13 02:18:15;;;;;;;;;;;;;;;22.07;48.04;102436.97;5114004;28;1968;-61
2021/06/13 02:20:41;;;;;;;;;;;;;;;22.06;47.54;102426.25;5107069;28;1268;-61
2021/06/13 02:23:06;;;;;;;;;;;;;;;22.04;48.25;102433.66;5106720;28;1931;-61
2021/06/13 02:25:31;;;;;;;;;;;;;;;22.02;48.45;102422.13;5099472;28;1491;-61
2021/06/13 02:27:56;;;;;;;;;;;;;;;22.02;48.98;102422.97;5104380;28;1631;-62
2021/06/13 02:30:21;;;;;;;;;;;;;;;22.00;48.14;102421.38;5109788;28;1320;-61
2021/06/13 02:32:46;;;;;;;;;;;;;;;22.00;48.19;102429.53;5102034;28;1566;-61
2021/06/13 02:35:11;;;;;;;;;;;;;;;21.99;48.81;102434.06;5107477;28;1275;-61
2021/06/13 02:37:38;;;;;;;;;;;;;;;21.99;48.31;102435.91;5098929;28;1661;-61
2021/06/13 02:40:03;;;;;;;;;;;;;;;21.97;47.79;102424.34;5099948;28;2249;-62
2021/06/13 02:42:28;;;;;;;;;;;;;;;21.95;47.66;102429.91;5113738;28;1762;-61
2021/06/13 02:44:53;;;;;;;;;;;;;;;21.93;48.88;102429.16;5104516;28;1343;-61
2021/06/13 02:47:18;;;;;;;;;;;;;;;21.92;47.74;102432.00;5102076;28;1634;-61
2021/06/13 02:49:43;;;;;;;;;;;;;;;21.93;48.59;102428.31;5102132;28;1642;-61
2021/06/13 02:52:08;;;;;;;;;;;;;;;21.92;48.12;102432.00;5104814;28;1838;-61
2021/06/13 02:54:33;;;;;;;;;;;;;;;21.90;48.85;102436.72;5107550;28;1202;-61
2021/06/13 02:56:58;;;;;;;;;;;;;;;21.90;48.20;102437.56;5101744;28;1812;-61
2021/06/13 02:59:23;;;;;;;;;;;;;;;21.88;48.22;102431.41;5102415;28;1909;-61
2021/06/13 03:01:48;;;;;;;;;;;;;;;21.88;47.79;102428.69;5111356;28;1298;-61
2021/06/13 03:04:14;;;;;;;;;;;;;;;21.88;47.93;102425.13;5099100;28;1416;-61
2021/06/13 03:06:39;;;;;;;;;;;;;;;21.88;47.81;102428.69;5104715;28;1802;-61
2021/06/13 03:09:04;;;;;;;;;;;;;;;21.87;48.58;102439.69;5103214;28;1298;-61
2021/06/13 03:11:29;;;;;;;;;;;;;;;21.86;47.96;102433.41;5109297;28;1748;-61
2021/06/13 03:13:54;;;;;;;;;;;;;;;21.86;48.73;102435.25;5097765;28;1499;-61
2021/06/13 03:16:19;;;;;;;;;;;;;;;21.84;48.47;102438.13;5109370;28;1324;-60
2021/06/13 03:18:44;;;;;;;;;;;;;;;21.82;48.30;102438.25;5102773;28;1914;-61
2021/06/13 03:21:09;;;;;;;;;;;;;;;21.80;48.32;102432.09;5104910;28;1602;-61
2021/06/13 03:23:34;;;;;;;;;;;;;;;21.82;47.86;102429.25;5114357;28;1270;-61
2021/06/13 03:26:01;;;;;;;;;;;;;;;21.81;48.33;102432.97;5101420;28;1557;-61
2021/06/13 03:28:26;;;;;;;;;;;;;;;21.79;47.85;102434.94;5110059;28;1733;-61
2021/06/13 03:30:52;;;;;;;;;;;;;;;21.78;48.63;102439.50;5109046;28;1150;-61
2021/06/13 03:33:17;;;;;;;;;;;;;;;21.78;48.06;102439.50;5111611;28;1732;-61
2021/06/13 03:35:42;;;;;;;;;;;;;;;21.78;48.32;102444.94;5101636;28;1373;-62
2021/06/13 03:38:07;;;;;;;;;;;;;;;21.77;48.42;102450.50;5107919;28;1889;-61
2021/06/13 03:40:32;;;;;;;;;;;;;;;21.77;47.46;102459.50;5111328;28;1353;-62
2021/06/13 03:42:57;;;;;;;;;;;;;;;21.75;48.45;102456.06;5108489;28;1780;-61
2021/06/13 03:45:22;;;;;;;;;;;;;;;21.76;48.03;102462.34;5103921;28;1454;-61
2021/06/13 03:47:47;;;;;;;;;;;;;;;21.75;47.50;102461.50;5110019;28;1624;-61
2021/06/13 03:50:12;;;;;;;;;;;;;;;21.74;47.44;102453.47;5114025;28;1290;-61
2021/06/13 03:52:37;;;;;;;;;;;;;;;21.73;47.78;102460.75;5104132;28;1753;-61
2021/06/13 03:55:02;;;;;;;;;;;;;;;21.73;47.37;102458.03;5109264;28;1619;-61
2021/06/13 03:57:27;;;;;;;;;;;;;;;21.74;48.08;102473.34;5102585;28;1447;-61
2021/06/13 03:59:53;;;;;;;;;;;;;;;21.74;47.79;102476.06;5107979;28;1905;-61
2021/06/13 04:02:18;;;;;;;;;;;;;;;21.76;47.17;102465.06;5102817;28;1735;-61
2021/06/13 04:04:43;;;;;;;;;;;;;;;21.78;47.60;102460.38;5109394;28;1319;-60
2021/06/13 04:07:08;;;;;;;;;;;;;;;21.80;47.28;102464.66;5104890;28;1600;-61
2021/06/13 04:09:33;;;;;;;;;;;;;;;21.81;47.25;102466.41;5103891;28;1905;-61
2021/06/13 04:11:58;;;;;;;;;;;;;;;21.81;47.52;102468.25;5114168;28;1218;-61
2021/06/13 04:14:23;;;;;;;;;;;;;;;21.82;47.45;102467.25;5097777;28;1641;-60
2021/06/13 04:16:49;;;;;;;;;;;;;;;21.83;47.37;102472.56;5080503;28;1632;-61
2021/06/13 04:19:14;;;;;;;;;;;;;;;21.85;47.29;102474.28;5107304;28;1920;-61
2021/06/13 04:21:39;;;;;;;;;;;;;;;21.86;47.32;102476.81;5101451;28;1743;-61
2021/06/13 04:24:04;;;;;;;;;;;;;;;21.86;47.40;102478.69;5109308;28;1603;-60
2021/06/13 04:26:29;;;;;;;;;;;;;;;21.87;47.42;102474.97;5106906;28;1569;-60
2021/06/13 04:28:54;;;;;;;;;;;;;;;21.88;47.87;102471.28;5109113;28;1716;-61
2021/06/13 04:31:19;;;;;;;;;;;;;;;21.89;47.64;102478.41;5103377;28;1251;-60
2021/06/13 04:33:44;;;;;;;;;;;;;;;21.90;47.98;102474.72;5110018;28;1682;-60
2021/06/13 04:36:10;;;;;;;;;;;;;;;21.91;47.47;102473.72;5113483;28;1254;-61
2021/06/13 04:38:35;;;;;;;;;;;;;;;21.92;47.17;102483.59;5104142;28;1913;-61
2021/06/13 04:41:00;;;;;;;;;;;;;;;21.93;47.26;102483.47;5103252;28;1616;-61
2021/06/13 04:43:25;;;;;;;;;;;;;;;21.96;47.34;102482.34;5111414;28;1246;-60
2021/06/13 04:45:50;;;;;;;;;;;;;;;21.99;48.02;102490.22;5100435;28;1207;-61
2021/06/13 04:48:17;;;;;;;;;;;;;;;22.03;47.23;102492.56;5107613;28;1838;-61
2021/06/13 04:50:42;;;;;;;;;;;;;;;22.05;47.63;102487.84;5108570;28;1410;-61
2021/06/13 04:53:07;;;;;;;;;;;;;;;22.07;47.47;102487.72;5106931;28;1747;-61
2021/06/13 04:55:32;;;;;;;;;;;;;;;22.11;47.37;102489.16;5112405;28;1251;-60
2021/06/13 04:57:57;;;;;;;;;;;;;;;22.11;47.17;102489.16;5098833;28;1926;-61
2021/06/13 05:00:23;;;;;;;;;;;;;;;22.16;48.11;102497.78;5111048;28;1538;-61
2021/06/13 05:02:48;;;;;;;;;;;;;;;22.21;47.16;102505.53;5105677;28;1820;-61
2021/06/13 05:05:13;;;;;;;;;;;;;;;22.25;47.34;102509.66;5104078;28;988;-61
2021/06/13 05:07:38;;;;;;;;;;;;;;;22.28;47.09;102509.41;5112818;28;1505;-61
2021/06/13 05:10:03;;;;;;;;;;;;;;;22.34;47.78;102512.44;5099869;28;1380;-60
2021/06/13 05:12:28;;;;;;;;;;;;;;;22.39;47.07;102510.16;5114452;28;1756;-61
2021/06/13 05:14:53;;;;;;;;;;;;;;;22.45;47.41;102504.19;5106524;28;1737;-60
2021/06/13 05:17:18;;;;;;;;;;;;;;;22.51;47.19;102517.25;5109825;28;1453;-61
2021/06/13 05:19:43;;;;;;;;;;;;;;;22.58;46.94;102516.69;5100734;28;2839;-60
2021/06/13 05:22:08;;;;;;;;;;;;;;;22.73;46.99;102521.63;5091273;28;1795;-61
2021/06/13 05:24:34;;;;;;;;;;;;;;;22.39;44.49;102521.03;5093854;28;1701;-59
2021/06/13 05:26:59;;;;;;;;;;;;;;;21.95;43.87;102513.19;5098892;28;1498;-59
2021/06/13 05:29:24;;;;;;;;;;;;;;;21.81;44.42;102520.69;5097471;28;1764;-60
2021/06/13 05:31:49;;;;;;;;;;;;;;;21.73;43.52;102516.88;5094455;28;1511;-59
2021/06/13 05:34:14;;;;;;;;;;;;;;;21.67;43.56;102517.44;5096716;28;1799;-60
2021/06/13 05:36:39;;;;;;;;;;;;;;;21.60;44.46;102513.50;5090924;28;2217;-60
2021/06/13 05:39:04;;;;;;;;;;;;;;;21.64;43.74;102523.13;5091441;28;1968;-60
2021/06/13 05:41:29;;;;;;;;;;;;;;;21.60;43.31;102519.78;5092457;28;1890;-59
2021/06/13 05:43:55;;;;;;;;;;;;;;;21.56;43.50;102531.88;5085900;28;2164;-60
2021/06/13 05:46:20;;;;;;;;;;;;;;;21.43;43.85;102536.63;5082459;28;1425;-60
2021/06/13 05:48:45;;;;;;;;;;;;;;;21.28;43.84;102530.66;5085124;28;1361;-60
2021/06/13 05:51:10;;;;;;;;;;;;;;;21.29;45.07;102524.25;5077690;28;1575;-60
2021/06/13 05:53:35;;;;;;;;;;;;;;;21.31;44.13;102521.41;5078389;28;1412;-60
2021/06/13 05:56:00;;;;;;;;;;;;;;;21.41;44.19;102523.19;5078837;28;1416;-60
2021/06/13 05:58:25;;;;;;;;;;;;;;;21.55;43.01;102535.59;5086757;28;1989;-60
2021/06/13 06:00:50;;;;;;;;;;;;;;;21.46;43.62;102541.81;5086540;28;1340;-60
2021/06/13 06:03:15;;;;;;;;;;;;;;;21.44;44.04;102530.22;5104544;28;1373;-60
2021/06/13 06:05:40;;;;;;;;;;;;;;;21.32;43.01;102533.94;5093264;28;1491;-60
2021/06/13 06:08:06;;;;;;;;;;;;;;;21.42;42.71;102534.91;5076826;28;1368;-59
2021/06/13 06:10:31;;;;;;;;;;;;;;;21.45;42.62;102534.66;5079237;28;1525;-59
2021/06/13 06:12:56;;;;;;;;;;;;;;;21.51;41.98;102550.41;5095002;28;1241;-59
2021/06/13 06:15:21;;;;;;;;;;;;;;;21.53;41.75;102553.84;5094990;28;1397;-59
2021/06/13 06:17:46;;;;;;;;;;;;;;;21.56;42.18;102553.59;5086897;28;1728;-59
2021/06/13 06:20:11;;;;;;;;;;;;;;;21.57;42.42;102554.47;5102975;28;1957;-59
2021/06/13 06:22:36;;;;;;;;;;;;;;;21.48;42.53;102546.13;5095175;28;1330;-59
2021/06/13 06:25:01;;;;;;;;;;;;;;;21.33;42.51;102546.50;5096601;28;1143;-60
2021/06/13 06:27:27;;;;;;;;;;;;;;;21.40;42.00;102550.44;5085208;28;1469;-60
2021/06/13 06:29:52;;;;;;;;;;;;;;;21.51;41.85;102550.41;5097704;28;1398;-60
2021/06/13 06:32:17;;;;;;;;;;;;;;;21.61;41.08;102562.22;5092857;28;1451;-60
2021/06/13 06:34:42;;;;;;;;;;;;;;;21.57;40.82;102562.59;5077982;28;1357;-59
2021/06/13 06:37:07;;;;;;;;;;;;;;;21.20;40.90;102556.66;5078082;28;1187;-60
2021/06/13 06:39:32;;;;;;;;;;;;;;;21.24;42.10;102547.28;5081372;28;1960;-60
2021/06/13 06:41:57;;;;;;;;;;;;;;;21.48;41.79;102556.09;5103595;28;1563;-60
2021/06/13 06:44:22;;;;;;;;;;;;;;;21.44;42.85;102557.34;5098651;28;1506;-60
2021/06/13 06:46:47;;;;;;;;;;;;;;;21.55;42.29;102554.59;5094975;28;1871;-59
2021/06/13 06:49:12;;;;;;;;;;;;;;;21.53;42.94;102556.56;5098131;28;1480;-59
2021/06/13 06:51:38;;;;;;;;;;;;;;;21.54;41.76;102566.41;5084576;28;1352;-59
2021/06/13 06:54:03;;;;;;;;;;;;;;;21.62;42.42;102563.06;5091044;28;1499;-59
2021/06/13 06:56:28;;;;;;;;;;;;;;;21.61;42.03;102564.94;5078339;28;1283;-60
2021/06/13 06:58:53;;;;;;;;;;;;;;;21.74;41.92;102572.88;5079486;28;1918;-58
2021/06/13 07:01:18;;;;;;;;;;;;;;;21.72;41.99;102580.28;5095777;28;1799;-59
2021/06/13 07:03:43;;;;;;;;;;;;;;;21.62;42.14;102582.06;5095863;28;1477;-59
2021/06/13 07:06:08;;;;;;;;;;;;;;;21.61;42.57;102586.63;5100142;28;1615;-59
2021/06/13 07:08:33;;;;;;;;;;;;;;;21.46;42.69;102590.63;5095428;28;1620;-59
2021/06/13 07:10:58;;;;;;;;;;;;;;;21.45;42.99;102595.19;5099584;28;1271;-58
2021/06/13 07:13:23;;;;;;;;;;;;;;;21.55;41.93;102600.72;5078820;28;1463;-59
2021/06/13 07:15:48;;;;;;;;;;;;;;;21.45;41.72;102595.19;5095813;28;1760;-59
2021/06/13 07:18:13;;;;;;;;;;;;;;;21.35;41.97;102605.06;5109448;28;1874;-59
2021/06/13 07:20:39;;;;;;;;;;;;;;;21.46;42.51;102604.19;5107013;28;1628;-60
2021/06/13 07:23:04;;;;;;;;;;;;;;;21.48;41.28;102600.38;5099542;28;1326;-59
2021/06/13 07:25:29;;;;;;;;;;;;;;;21.63;41.57;102597.38;5096537;28;1230;-59
2021/06/13 07:27:54;;;;;;;;;;;;;;;21.52;41.85;102606.38;5106879;28;1510;-59
2021/06/13 07:30:19;;;;;;;;;;;;;;;21.51;41.54;102601.09;5101916;28;1617;-59
2021/06/13 07:32:44;;;;;;;;;;;;;;;21.46;41.34;102612.34;5098752;28;1636;-59
2021/06/13 07:35:09;;;;;;;;;;;;;;;21.29;41.89;102615.59;5095155;28;1355;-58
2021/06/13 07:37:35;;;;;;;;;;;;;;;21.38;41.32;102622.94;5095655;28;1474;-58
2021/06/13 07:40:00;;;;;;;;;;;;;;;21.68;39.97;102623.09;5095652;28;1897;-59
2021/06/13 07:42:25;;;;;;;;;;;;;;;21.68;40.35;102614.09;5095148;28;1509;-61
2021/06/13 07:44:51;;;;;;;;;;;;;;;21.57;39.15;102615.00;5068418;28;1493;-58
2021/06/13 07:47:16;;;;;;;;;;;;;;;21.67;39.53;102623.25;5083359;28;1658;-59
2021/06/13 07:49:41;;;;;;;;;;;;;;;21.71;39.17;102606.56;5109851;28;1248;-60
2021/06/13 07:52:06;;;;;;;;;;;;;;;21.76;40.04;102617.91;5097492;28;1127;-57
2021/06/13 07:54:31;;;;;;;;;;;;;;;21.69;40.14;102624.81;5107354;28;1250;-58
2021/06/13 07:56:56;;;;;;;;;;;;;;;21.64;41.20;102621.66;5092334;28;1182;-60
2021/06/13 07:59:21;;;;;;;;;;;;;;;21.59;40.89;102613.03;5094725;28;1910;-58
2021/06/13 08:01:47;;;;;;;;;;;;;;;21.56;40.45;102610.56;5099406;28;1294;-60
2021/06/13 08:04:12;;;;;;;;;;;;;;;21.43;40.41;102610.75;5094180;28;1368;-59
2021/06/13 08:06:37;;;;;;;;;;;;;;;21.23;40.25;102616.06;5099908;28;1272;-58
2021/06/13 08:09:02;;;;;;;;;;;;;;;21.31;40.79;102619.91;5096660;28;1420;-59
2021/06/13 08:11:27;;;;;;;;;;;;;;;21.54;40.10;102626.09;5099724;28;1217;-59
2021/06/13 08:13:52;;;;;;;;;;;;;;;21.48;39.57;102622.06;5113937;28;1291;-59
2021/06/13 08:16:17;;;;;;;;;;;;;;;21.25;39.84;102619.53;5097659;28;1387;-59
2021/06/13 08:18:42;;;;;;;;;;;;;;;21.10;39.28;102627.03;5098976;28;1949;-59
2021/06/13 08:21:07;;;;;;;;;;;;;;;21.04;39.99;102633.81;5099053;28;1287;-59
2021/06/13 08:23:33;;;;;;;;;;;;;;;21.14;39.87;102634.78;5099080;28;1561;-59
2021/06/13 08:25:58;;;;;;;;;;;;;;;21.43;39.09;102640.56;5102221;28;1393;-59
2021/06/13 08:28:23;;;;;;;;;;;;;;;21.33;38.69;102636.00;5103248;28;1578;-59
2021/06/13 08:30:48;;;;;;;;;;;;;;;21.45;40.44;102627.75;5107975;28;1198;-60
2021/06/13 08:33:14;;;;;;;;;;;;;;;21.28;39.72;102631.00;5110574;28;1438;-60
2021/06/13 08:35:39;;;;;;;;;;;;;;;20.94;39.39;102638.25;5101559;28;1444;-59
2021/06/13 08:38:05;;;;;;;;;;;;;;;20.85;38.27;102636.28;5085603;28;1890;-59
2021/06/13 08:40:30;;;;;;;;;;;;;;;21.14;37.52;102639.34;5090860;28;1438;-59
2021/06/13 08:42:55;;;;;;;;;;;;;;;21.15;37.60;102632.94;5106941;28;1414;-60
2021/06/13 08:47:55;;;;;;;;;;;;;;;21.30;38.13;102668.84;5121657;27;12397;-57
2021/06/13 08:50:20;;;;;;;;;;;;;;;21.50;36.57;102670.75;5118330;28;1197;-58
2021/06/13 08:52:45;;;;;;;;;;;;;;;21.24;36.52;102667.47;5124248;28;1447;-60
2021/06/13 08:55:10;;;;;;;;;;;;;;;21.24;36.92;102663.91;5124991;28;1475;-59
2021/06/13 08:57:35;;;;;;;;;;;;;;;21.24;37.93;102661.19;5116229;28;1441;-59
2021/06/13 09:00:01;;;;;;;;;;;;;;;21.45;35.59;102662.16;5129264;28;1497;-60
2021/06/13 09:02:26;;;;;;;;;;;;;;;21.63;37.17;102660.63;5118926;28;1468;-60
2021/06/13 09:04:51;;;;;;;;;;;;;;;21.59;36.79;102656.44;5122658;28;1634;-60
2021/06/13 09:07:16;;;;;;;;;;;;;;;21.29;37.37;102659.84;5125946;28;1972;-60
2021/06/13 09:09:41;;;;;;;;;;;;;;;21.20;36.71;102663.28;5115319;28;1166;-60
2021/06/13 09:12:06;;;;;;;;;;;;;;;21.40;36.05;102661.66;5097034;28;1313;-60
2021/06/13 09:14:32;;;;;;;;;;;;;;;21.24;36.50;102667.47;5125264;28;1377;-60
2021/06/13 09:16:57;;;;;;;;;;;;;;;21.09;36.04;102664.13;5112108;28;1759;-60
2021/06/13 09:19:22;;;;;;;;;;;;;;;21.19;37.19;102655.25;5107672;28;1756;-60
2021/06/13 09:21:47;;;;;;;;;;;;;;;21.14;36.17;102667.31;5115489;28;1330;-60
2021/06/13 09:24:12;;;;;;;;;;;;;;;21.10;36.02;102670.41;5128204;28;1731;-61
2021/06/13 09:26:38;;;;;;;;;;;;;;;21.10;36.27;102676.69;5120057;28;1913;-61
2021/06/13 09:29:03;;;;;;;;;;;;;;;21.24;34.01;102672.03;5120839;28;1442;-61
2021/06/13 09:31:28;;;;;;;;;;;;;;;21.24;35.03;102680.16;5126843;28;1492;-61
2021/06/13 09:33:53;;;;;;;;;;;;;;;20.97;32.08;102669.66;5114928;28;1273;-60
2021/06/13 09:36:18;;;;;;;;;;;;;;;20.95;33.46;102667.09;5129427;28;1856;-60
2021/06/13 09:38:44;;;;;;;;;;;;;;;20.92;33.28;102671.88;5123000;28;1146;-60
2021/06/13 09:41:10;;;;;;;;;;;;;;;21.07;35.23;102666.09;5123713;28;1213;-60
2021/06/13 09:43:35;;;;;;;;;;;;;;;21.04;36.28;102662.75;5115915;28;1281;-61
2021/06/13 09:46:00;;;;;;;;;;;;;;;21.01;37.50;102666.59;5128578;28;1965;-60
2021/06/13 09:48:25;;;;;;;;;;;;;;;20.96;36.16;102659.81;5118296;28;1518;-61
2021/06/13 09:50:50;;;;;;;;;;;;;;;20.98;37.31;102666.81;5122655;28;1440;-60
2021/06/13 09:53:15;;;;;;;;;;;;;;;21.11;37.21;102674.84;5125223;28;1403;-61
2021/06/13 09:55:41;;;;;;;;;;;;;;;21.07;36.15;102666.09;5114457;28;1499;-61
2021/06/13 09:58:06;;;;;;;;;;;;;;;21.15;36.48;102666.31;5108746;28;1323;-60
2021/06/13 10:00:31;;;;;;;;;;;;;;;21.06;36.22;102661.66;5097975;28;1301;-61
2021/06/13 10:02:56;;;;;;;;;;;;;;;20.99;36.89;102665.84;5096933;28;1633;-61
2021/06/13 10:05:21;;;;;;;;;;;;;;;21.11;37.10;102664.88;5097447;28;1607;-61
2021/06/13 10:07:46;;;;;;;;;;;;;;;21.08;36.72;102662.41;5097405;28;1882;-55
2021/06/13 10:10:11;;;;;;;;;;;;;;;21.25;35.13;102657.50;5113128;28;1096;-57
2021/06/13 10:12:36;;;;;;;;;;;;;;;21.28;34.69;102658.13;5104362;28;1218;-57
2021/06/13 10:15:01;;;;;;;;;;;;;;;21.18;35.96;102654.38;5105398;28;1503;-58
2021/06/13 10:17:26;;;;;;;;;;;;;;;21.02;37.39;102649.34;5097327;28;1763;-58
2021/06/13 10:19:51;;;;;;;;;;;;;;;21.12;36.55;102653.03;5097162;28;1554;-57
2021/06/13 10:22:17;;;;;;;;;;;;;;;21.11;37.29;102655.88;5102506;28;1609;-58
2021/06/13 10:24:42;;;;;;;;;;;;;;;20.97;38.37;102647.97;5102187;28;1640;-58
2021/06/13 10:27:07;;;;;;;;;;;;;;;20.94;39.42;102645.53;5097749;28;1885;-58
2021/06/13 10:29:32;;;;;;;;;;;;;;;21.12;36.74;102644.91;5096882;28;2283;-57
2021/06/13 10:31:57;;;;;;;;;;;;;;;21.05;38.11;102640.97;5097324;28;1550;-58
2021/06/13 10:34:22;;;;;;;;;;;;;;;21.19;37.43;102636.25;5096900;28;1711;-58
2021/06/13 10:36:47;;;;;;;;;;;;;;;21.29;36.27;102642.69;5106265;28;1813;-58
2021/06/13 10:39:12;;;;;;;;;;;;;;;21.02;35.53;102645.75;5104462;28;1505;-58
2021/06/13 10:41:38;;;;;;;;;;;;;;;21.02;35.98;102640.34;5109288;28;1179;-57
2021/06/13 10:44:03;;;;;;;;;;;;;;;21.01;37.34;102641.31;5098941;28;1547;-58
2021/06/13 10:46:28;;;;;;;;;;;;;;;20.93;38.23;102641.97;5098027;28;1909;-58
2021/06/13 10:48:54;;;;;;;;;;;;;;;20.92;38.89;102640.22;5102593;28;1607;-58
2021/06/13 10:51:19;;;;;;;;;;;;;;;20.86;39.76;102642.56;5109601;28;1800;-48
2021/06/13 10:53:44;;;;;;;;;;;;;;;20.93;39.62;102636.53;5099760;28;1236;-61
2021/06/13 10:56:09;;;;;;;;;;;;;;;20.93;40.46;102625.69;5103058;28;1556;-59
2021/06/13 10:58:34;;;;;;;;;;;;;;;20.89;40.55;102626.91;5095775;28;1319;-58
2021/06/13 11:01:00;;;;;;;;;;;;;;;20.92;40.85;102632.09;5107116;28;1114;-59
2021/06/13 11:03:25;;;;;;;;;;;;;;;20.90;40.28;102631.34;5101475;28;1263;-59
2021/06/13 11:05:50;;;;;;;;;;;;;;;20.96;40.06;102625.41;5109408;28;1898;-59
2021/06/13 11:08:16;;;;;;;;;;;;;;;21.06;40.58;102626.41;5100842;28;1293;-60
2021/06/13 11:10:42;;;;;;;;;;;;;;;21.12;40.73;102630.50;5106941;28;1272;-59
2021/06/13 11:13:09;;;;;;;;;;;;;;;21.10;40.23;102630.63;5107895;28;1118;-59
2021/06/13 11:15:41;;;;;;;;;;;;;;;21.14;39.94;102618.50;5100238;28;1338;-60
2021/06/13 11:18:06;;;;;;;;;;;;;;;21.12;39.79;102620.50;5113074;28;1374;-59
2021/06/13 11:23:05;;;;;;;;;;;;;;;21.18;39.85;102618.25;5104606;28;1246;-59
2021/06/13 11:25:30;;;;;;;;;;;;;;;21.21;40.25;102618.03;5111132;28;1359;-59
2021/06/13 11:27:55;;;;;;;;;;;;;;;21.21;40.76;102632.47;5097039;28;1893;-57
2021/06/13 11:30:20;;;;;;;;;;;;;;;21.18;40.45;102619.13;5095601;28;1009;-59
2021/06/13 11:32:45;;;;;;;;;;;;;;;21.28;40.78;102620.16;5104801;28;1162;-59
2021/06/13 11:35:10;;;;;;;;;;;;;;;21.28;40.52;102625.56;5102944;28;1258;-59
2021/06/13 11:37:35;;;;;;;;;;;;;;;21.20;40.76;102621.75;5096610;28;1245;-60
2021/06/13 11:40:01;;;;;;;;;;;;;;;21.19;41.15;102619.97;5112103;28;1278;-60
2021/06/13 11:42:26;;;;;;;;;;;;;;;21.25;40.74;102612.25;5101326;28;1217;-59
2021/06/13 11:44:51;;;;;;;;;;;;;;;21.36;40.26;102611.34;5105528;28;1197;-58
2021/06/13 11:47:16;;;;;;;;;;;;;;;21.41;39.79;102606.44;5096107;28;1965;-61
2021/06/13 11:49:41;;;;;;;;;;;;;;;21.41;38.99;102609.13;5095407;28;1351;-60
2021/06/13 11:52:07;;;;;;;;;;;;;;;21.28;38.47;102614.72;5111985;28;1408;-60
2021/06/13 11:54:32;;;;;;;;;;;;;;;21.29;38.67;102611.03;5094985;28;1661;-61
2021/06/13 11:56:57;;;;;;;;;;;;;;;21.41;38.97;102614.56;5106002;28;1233;-60
2021/06/13 11:59:22;;;;;;;;;;;;;;;21.45;39.25;102610.63;5101229;28;1130;-60
2021/06/13 12:01:48;;;;;;;;;;;;;;;21.49;39.22;102617.50;5111848;28;1336;-60
2021/06/13 12:04:13;;;;;;;;;;;;;;;21.48;39.85;102618.50;5081349;28;1626;-60
2021/06/13 12:06:38;;;;;;;;;;;;;;;21.38;41.33;102604.81;5103019;28;1902;-60
2021/06/13 12:09:03;;;;;;;;;;;;;;;21.29;41.41;102604.75;5103797;28;1165;-60
2021/06/13 12:11:29;;;;;;;;;;;;;;;21.44;39.79;102606.19;5109639;28;1384;-59
2021/06/13 12:13:54;;;;;;;;;;;;;;;21.35;40.80;102602.34;5096895;28;1260;-60
2021/06/13 12:16:19;;;;;;;;;;;;;;;21.44;40.05;102595.31;5109677;28;1138;-60
2021/06/13 12:18:44;;;;;;;;;;;;;;;21.45;39.14;102588.91;5103513;28;1197;-61
2021/06/13 12:21:09;;;;;;;;;;;;;;;21.42;39.14;102587.31;5102505;28;1268;-61
2021/06/13 12:23:35;;;;;;;;;;;;;;;21.40;40.84;102588.41;5110692;28;1285;-61
2021/06/13 12:28:44;;;;;;;;;;;;;;;21.39;41.83;102590.28;5106804;28;1467;-61
2021/06/13 12:31:10;;;;;;;;;;;;;;;21.40;41.17;102586.56;5107812;28;1426;-61
2021/06/13 12:33:36;;;;;;;;;;;;;;;21.46;41.20;102580.66;5099047;28;1639;-61
2021/06/13 12:36:03;;;;;;;;;;;;;;;21.48;41.84;102569.66;5097467;28;1722;-61
2021/06/13 12:38:28;;;;;;;;;;;;;;;21.51;40.29;102574.81;5094192;28;1701;-61
2021/06/13 12:40:53;;;;;;;;;;;;;;;21.53;39.95;102564.69;5104490;28;1063;-60
2021/06/13 12:43:19;;;;;;;;;;;;;;;21.59;40.02;102566.03;5114421;28;1641;-60